Etusivu
METAR-TAF:

METAR-TAF

Lentoasemat :

Esbjerg, Tanska

Leveyspiiri: 55-32N, Pituuspiiri: 008-34E, korkeus merenpinnasta: 30 m

Tämänhetkinen sää

Tämä raportti tehtiin 39 minuuttia sitten, kello 13.50 UTC
Tuuli 13 kn lännestä/lounaasta
Lämpötila 17°C
Kosteus 77%
Ilmanpaine 1004 hPa
Näkyvyys 10 km tai enemmän

METAR: EKEB 271350Z AUTO 25013KT 9999NDV FEW023/// 17/13 Q1004

Aika: 16:29 (14:29 UTC)

Sääennuste

Tämä raportti tehtiin 3 tuntia ja 7 minuuttia sitten, kello 11.22 UTC
Ennuste voimassa 27. päivästä klo 12 UTC - 27. päivään klo 21 UTC
Tuuli 12 kn lännestä
Näkyvyys 10 km tai enemmän
Hajanaisia pilviä 2500 ft:n korkeudessa

TAF: EKEB 271122Z 2712/2721 26012KT 9999 SCT025

Säähavainnot ja -ennusteet yli 4000 lentoasemalta (METAR- ja TAF-raportit).

Käytössä olevat sääasemat on merkitty karttaan keltaisilla ja punaisilla pisteillä.

Aseta hiiri pisteen päälle nähdäksesi sääaseman nimen.

Klikkaa sitten nähdäksesi säähavainnot ja -ennusteet.

Kartan vaihtaminen: klikkaa mustalla rastilla varustettuja vihreitä pisteitä, niin voit zoomata sisään; viivalla varustettua vihreää pistettä, niin voit zoomata ulos tai vihreitä nuolia, niin pääset viereisille kartoille.


METAR-TAF: